Low Moor, IA (52757)

12:52 PM CST on February 10, 2016 (GMT -0600)
IADOT | | Change Station
CLOSE
Current Station
Personal Weather Station
Location: Low Moor, IA
Elevation: 790 ft
Nearby Weather Stations

Elev 790 ft 41.83 °N, 90.57 °W | Updated 29 minutes ago

Partly Cloudy
Partly Cloudy
16.0 °F
Feels Like 6 °F
N
7.0
Wind Variable Wind from NNW
Gusts 12.0 mph

Today
High -- | Low -- °F
--% Chance of Precip.
Yesterday
High -- | Low -- °F
Precip. -- in
Pressure 30.17 in
Visibility 10.0 miles
Clouds Clear
Windchill 6 °F
Dew Point 5.0 °F
Humidity 63%
Rainfall in
Snow Depth Not available.
7:04 AM 5:28 PM
Waxing Crescent, 6% visible
METAR KCWI 101756Z AUTO 33008KT 10SM CLR M09/M16 A3008 RMK AO2 SLP216 T10891161 11089 21156 58007 FZRANO
Pressure 30.17 in
Visibility 10.0 miles
Clouds Clear
Windchill 6 °F
Dew Point 5.0 °F
Humidity 63%
Rainfall in
Snow Depth Not available.
7:04 AM 5:28 PM
Waxing Crescent, 6% visible
METAR KCWI 101756Z AUTO 33008KT 10SM CLR M09/M16 A3008 RMK AO2 SLP216 T10891161 11089 21156 58007 FZRANO

10-Day Weather Forecast

Almanac

Astronomy

Feb. 10, 2016 Rise Set
Actual Time
Civil Twilight
Nautical Twilight
Astronomical Twilight
Moon
Length of Visible Light
Length of Day
Tomorrow will be .
, % of the Moon is Illuminated

Today's Extremes

State Highs State Lows

Community

WunderPhotos

Upload Photos

1,891,915 photos uploaded!

WunderBlog® & News

Nearby

Air Quality

  Air Quality AQ Index Pollutant
Not available.

Snow Depth

Station Depth Elevation

Earthquake Activity

City Distance Mag. Time & Date
Minimum magnitude displayed is 2.5.

Coastal Water Temperatures

Place Temperature

Stations

Nearby Weather Stations

Station Location Temp. Windchill Dew Point Humidity Wind Precip. Elev Updated Type
                   

Watches & Warnings

There are currently no watches in effect.